createdAt,value
2023-02-14T00:00:13.232Z,34.33
2023-02-14T00:02:39.933Z,33.33
2023-02-14T00:05:06.902Z,34.83
2023-02-14T00:07:33.556Z,35.27
2023-02-14T00:10:00.220Z,35.80
2023-02-14T00:12:26.936Z,35.17
2023-02-14T00:15:12.072Z,33.63
2023-02-14T00:17:38.737Z,33.07
2023-02-14T00:20:06.189Z,34.57
2023-02-14T00:22:32.854Z,34.17
2023-02-14T00:24:59.526Z,35.67
2023-02-14T00:27:26.311Z,34.73
2023-02-14T00:29:54.745Z,33.40
2023-02-14T00:32:21.402Z,31.73
2023-02-14T00:34:48.069Z,37.03
2023-02-14T00:37:14.738Z,35.43
2023-02-14T00:39:41.406Z,34.90
2023-02-14T00:42:08.103Z,34.83
2023-02-14T00:44:34.771Z,34.63
2023-02-14T00:47:01.440Z,36.60
2023-02-14T00:49:28.358Z,35.77
2023-02-14T00:51:55.047Z,36.20
2023-02-14T00:54:21.805Z,35.40
2023-02-14T00:56:48.484Z,37.70
2023-02-14T00:59:15.388Z,38.47
2023-02-14T01:01:42.126Z,36.00
2023-02-14T01:04:09.558Z,35.53
2023-02-14T01:06:36.309Z,36.07
2023-02-14T01:09:03.501Z,36.00
2023-02-14T01:11:30.491Z,37.97
2023-02-14T01:13:58.378Z,36.43
2023-02-14T01:16:27.585Z,36.50
2023-02-14T01:18:54.513Z,38.67
2023-02-14T01:21:26.772Z,36.20
2023-02-14T01:23:55.716Z,38.37
2023-02-14T01:26:23.382Z,39.37
2023-02-14T01:28:50.353Z,37.17
2023-02-14T01:31:19.963Z,37.50
2023-02-14T01:33:48.655Z,35.63
2023-02-14T01:36:27.620Z,36.90
2023-02-14T01:38:57.356Z,37.63
2023-02-14T01:41:25.405Z,37.60
2023-02-14T01:44:01.160Z,37.83
2023-02-14T01:46:31.562Z,35.93
2023-02-14T01:49:07.235Z,36.20
2023-02-14T01:51:36.284Z,38.03
2023-02-14T01:54:05.879Z,37.13
2023-02-14T01:56:41.604Z,36.70
2023-02-14T01:59:12.446Z,37.10
2023-02-14T02:01:40.174Z,35.27
2023-02-14T02:04:15.894Z,36.03
2023-02-14T02:06:46.853Z,33.93
2023-02-14T02:09:44.114Z,34.53
2023-02-14T02:12:10.866Z,34.47
2023-02-14T02:14:37.917Z,30.87
2023-02-14T02:17:52.716Z,32.50
2023-02-14T02:20:32.772Z,31.43
2023-02-14T02:23:21.159Z,33.77
2023-02-14T02:26:09.823Z,31.63
2023-02-14T02:29:21.798Z,34.30
2023-02-14T02:32:31.626Z,30.97
2023-02-14T02:35:32.091Z,31.07
2023-02-14T02:38:17.154Z,33.60
2023-02-14T02:41:08.221Z,32.00
2023-02-14T02:44:06.164Z,31.13
2023-02-14T02:46:47.808Z,32.00
2023-02-14T02:49:40.733Z,31.40
2023-02-14T02:52:41.351Z,31.93
2023-02-14T02:55:19.862Z,32.67
2023-02-14T02:57:48.614Z,32.40
2023-02-14T03:00:17.376Z,32.17
2023-02-14T03:03:11.372Z,33.93
2023-02-14T03:05:38.432Z,31.17
2023-02-14T03:08:05.720Z,32.33
2023-02-14T03:10:37.501Z,32.17
2023-02-14T03:13:45.225Z,33.47
2023-02-14T03:16:20.868Z,33.10
2023-02-14T03:18:53.622Z,34.17
2023-02-14T03:21:23.058Z,31.30
2023-02-14T03:23:57.175Z,31.60
2023-02-14T03:26:51.616Z,33.30
2023-02-14T03:30:05.701Z,33.20
2023-02-14T03:32:48.465Z,32.87
2023-02-14T03:35:25.923Z,34.53
2023-02-14T03:38:08.888Z,33.30
2023-02-14T03:40:54.642Z,32.87
2023-02-14T03:43:37.389Z,31.63
2023-02-14T03:46:25.048Z,35.23
2023-02-14T03:48:54.909Z,33.23
2023-02-14T03:51:23.653Z,33.40
2023-02-14T03:53:56.165Z,34.27
2023-02-14T03:56:34.630Z,31.73
2023-02-14T03:59:08.862Z,34.03
2023-02-14T04:01:59.423Z,32.60
2023-02-14T04:04:30.928Z,32.60
2023-02-14T04:06:57.690Z,32.50
2023-02-14T04:09:24.604Z,34.27
2023-02-14T04:11:51.374Z,32.43
2023-02-14T04:14:18.415Z,31.47
2023-02-14T04:17:03.439Z,33.07
2023-02-14T04:22:07.825Z,32.43
2023-02-14T04:24:34.571Z,31.67
2023-02-14T04:27:10.901Z,30.97
2023-02-14T04:29:42.076Z,31.70
2023-02-14T04:32:13.854Z,32.80
2023-02-14T04:34:40.887Z,30.97
2023-02-14T04:37:08.143Z,32.03
2023-02-14T04:39:35.228Z,33.50
2023-02-14T04:42:02.972Z,33.07
2023-02-14T04:44:29.757Z,32.53
2023-02-14T04:46:56.522Z,34.53
2023-02-14T04:49:23.314Z,35.63
2023-02-14T04:51:50.026Z,32.90
2023-02-14T04:54:16.795Z,35.40
2023-02-14T04:56:43.705Z,35.20
2023-02-14T04:59:10.543Z,35.50
2023-02-14T05:01:37.380Z,35.13
2023-02-14T05:04:04.307Z,37.03
2023-02-14T05:06:31.205Z,36.47
2023-02-14T05:08:59.637Z,34.90
2023-02-14T05:11:27.731Z,37.10
2023-02-14T05:13:54.984Z,33.77
2023-02-14T05:16:21.795Z,34.90
2023-02-14T05:18:48.516Z,33.57
2023-02-14T05:21:15.266Z,32.47
2023-02-14T05:23:42.258Z,32.97
2023-02-14T05:26:09.278Z,41.67
2023-02-14T05:28:36.737Z,32.03
2023-02-14T05:31:03.926Z,33.90
2023-02-14T05:33:30.804Z,36.97
2023-02-14T05:36:00.402Z,37.17
2023-02-14T05:38:27.180Z,33.80
2023-02-14T05:40:53.923Z,34.13
2023-02-14T05:43:20.930Z,33.80
2023-02-14T05:45:48.778Z,35.10
2023-02-14T05:48:15.709Z,32.87
2023-02-14T05:50:45.610Z,34.40
2023-02-14T05:53:13.372Z,34.30
2023-02-14T05:55:40.481Z,33.73
2023-02-14T05:58:07.919Z,34.93
2023-02-14T06:00:34.970Z,33.27
2023-02-14T06:03:01.731Z,33.93
2023-02-14T06:05:28.590Z,33.40
2023-02-14T06:07:55.401Z,32.37
2023-02-14T06:10:24.553Z,33.93
2023-02-14T06:12:53.219Z,32.73
2023-02-14T06:15:20.449Z,30.80
2023-02-14T06:17:57.566Z,31.07
2023-02-14T06:20:25.277Z,29.60
2023-02-14T06:22:52.700Z,28.87
2023-02-14T06:25:21.782Z,30.23
2023-02-14T06:27:49.483Z,28.03
2023-02-14T06:30:17.610Z,28.23
2023-02-14T06:32:44.541Z,28.00
2023-02-14T06:35:11.304Z,30.33
2023-02-14T06:37:38.887Z,28.60
2023-02-14T06:40:06.301Z,30.90
2023-02-14T06:42:33.023Z,27.83
2023-02-14T06:44:59.815Z,28.43
2023-02-14T06:47:26.531Z,29.07
2023-02-14T06:49:53.225Z,30.37
2023-02-14T06:52:20.018Z,30.27
2023-02-14T06:54:46.728Z,29.13
2023-02-14T06:57:13.618Z,29.47
2023-02-14T06:59:40.415Z,29.93
2023-02-14T07:02:07.110Z,29.70
2023-02-14T07:04:33.804Z,32.57
2023-02-14T07:07:01.467Z,43.60
2023-02-14T07:09:28.208Z,31.33
2023-02-14T07:11:54.915Z,30.37
2023-02-14T07:14:21.806Z,31.03
2023-02-14T07:16:48.582Z,35.00
2023-02-14T07:19:15.364Z,30.83
2023-02-14T07:21:42.171Z,30.53
2023-02-14T07:24:09.117Z,26.43
2023-02-14T07:26:35.808Z,28.67
2023-02-14T07:29:02.795Z,29.87
2023-02-14T07:31:29.647Z,30.53
2023-02-14T07:34:00.775Z,31.50
2023-02-14T07:36:27.893Z,28.67
2023-02-14T07:38:56.692Z,29.37
2023-02-14T07:41:23.660Z,31.30
2023-02-14T07:43:50.403Z,31.20
2023-02-14T07:46:17.566Z,34.50
2023-02-14T07:48:44.526Z,29.40
2023-02-14T07:51:11.315Z,35.40
2023-02-14T07:53:38.072Z,33.03
2023-02-14T07:56:05.017Z,39.93
2023-02-14T07:58:31.857Z,30.70
2023-02-14T08:00:59.014Z,31.20
2023-02-14T08:03:25.924Z,31.60
2023-02-14T08:05:57.278Z,27.60
2023-02-14T08:08:29.009Z,30.07
2023-02-14T08:10:55.927Z,31.10
2023-02-14T08:13:23.139Z,27.77
2023-02-14T08:16:05.395Z,31.60
2023-02-14T08:18:35.270Z,29.63
2023-02-14T08:21:02.586Z,27.53
2023-02-14T08:23:30.097Z,27.90
2023-02-14T08:25:57.137Z,28.97
2023-02-14T08:28:24.354Z,27.20
2023-02-14T08:30:51.575Z,29.40
2023-02-14T08:33:19.020Z,29.20
2023-02-14T08:35:45.720Z,26.80
2023-02-14T08:38:12.736Z,27.53
2023-02-14T08:40:39.950Z,27.27
2023-02-14T08:43:07.432Z,27.67
2023-02-14T08:45:34.369Z,27.13
2023-02-14T08:48:02.755Z,28.40
2023-02-14T08:50:29.669Z,27.57
2023-02-14T08:52:59.324Z,28.10
2023-02-14T08:55:26.192Z,28.17
2023-02-14T08:57:54.678Z,26.50
2023-02-14T09:00:21.891Z,27.00
2023-02-14T09:02:53.093Z,28.60
2023-02-14T09:05:21.284Z,27.17
2023-02-14T09:07:48.026Z,26.47
2023-02-14T09:10:14.793Z,27.17
2023-02-14T09:12:42.192Z,25.70
2023-02-14T09:15:10.577Z,27.60
2023-02-14T09:17:38.142Z,26.87
2023-02-14T09:20:09.940Z,27.20
2023-02-14T09:22:36.748Z,26.33
2023-02-14T09:25:03.916Z,25.23
2023-02-14T09:27:32.312Z,26.90
2023-02-14T09:29:59.294Z,26.50
2023-02-14T09:32:27.217Z,29.27
2023-02-14T09:34:54.004Z,28.77
2023-02-14T09:37:39.389Z,29.07
2023-02-14T09:40:06.628Z,30.10
2023-02-14T09:43:07.327Z,28.53
2023-02-14T09:45:35.384Z,27.73
2023-02-14T09:48:27.194Z,28.07
2023-02-14T09:51:06.018Z,25.83
2023-02-14T09:53:38.451Z,24.97
2023-02-14T09:56:51.421Z,27.13
2023-02-14T09:59:35.839Z,32.10
2023-02-14T10:02:22.612Z,27.93
2023-02-14T10:05:07.110Z,28.17
2023-02-14T10:07:47.920Z,28.47
2023-02-14T10:10:43.186Z,26.23
2023-02-14T10:13:39.521Z,28.27
2023-02-14T10:16:21.171Z,28.87
2023-02-14T10:19:15.359Z,26.07
2023-02-14T10:21:48.411Z,26.80
2023-02-14T10:24:39.522Z,24.90
2023-02-14T10:27:22.761Z,24.77
2023-02-14T10:29:49.516Z,23.80
2023-02-14T10:32:25.094Z,25.23
2023-02-14T10:34:56.450Z,26.53
2023-02-14T10:37:26.324Z,27.93
2023-02-14T10:40:09.276Z,29.70
2023-02-14T10:42:54.636Z,32.20
2023-02-14T10:45:39.216Z,36.53
2023-02-14T10:48:13.503Z,34.57
2023-02-14T10:51:07.068Z,44.00
2023-02-14T10:54:11.264Z,49.27
2023-02-14T10:56:43.440Z,29.80
2023-02-14T10:59:25.706Z,27.60
2023-02-14T11:01:54.782Z,25.23
2023-02-14T11:04:24.080Z,25.00
2023-02-14T11:06:51.592Z,24.23
2023-02-14T11:09:19.322Z,24.80
2023-02-14T11:11:59.437Z,25.47
2023-02-14T11:14:32.750Z,24.67
2023-02-14T11:17:00.797Z,26.93
2023-02-14T11:19:38.781Z,25.60
2023-02-14T11:22:06.077Z,25.57
2023-02-14T11:24:41.593Z,25.67
2023-02-14T11:27:18.647Z,26.17
2023-02-14T11:29:52.228Z,24.90
2023-02-14T11:32:24.309Z,24.83
2023-02-14T11:35:19.581Z,25.03
2023-02-14T11:37:51.182Z,25.67
2023-02-14T11:40:38.162Z,25.73
2023-02-14T11:43:14.222Z,26.13
2023-02-14T11:45:47.388Z,23.97
2023-02-14T11:48:36.736Z,24.97
2023-02-14T11:51:06.193Z,23.97
2023-02-14T11:53:49.215Z,23.80
2023-02-14T11:56:18.017Z,24.17
2023-02-14T11:58:44.693Z,24.47
2023-02-14T12:01:24.479Z,23.13
2023-02-14T12:03:53.048Z,23.87
2023-02-14T12:06:25.526Z,27.67
2023-02-14T12:08:52.411Z,25.23
2023-02-14T12:11:23.909Z,24.93
2023-02-14T12:13:55.628Z,25.30
2023-02-14T12:16:29.102Z,28.03
2023-02-14T12:19:24.421Z,26.53
2023-02-14T12:21:58.113Z,26.03
2023-02-14T12:24:32.395Z,25.23
2023-02-14T12:27:05.134Z,25.60
2023-02-14T12:29:41.097Z,24.80
2023-02-14T12:32:21.448Z,26.57
2023-02-14T12:34:50.580Z,28.67
2023-02-14T12:37:20.499Z,24.87
2023-02-14T12:40:02.021Z,25.83
2023-02-14T12:42:38.163Z,25.43
2023-02-14T12:45:12.759Z,27.70
2023-02-14T12:47:51.349Z,26.00
2023-02-14T12:50:23.178Z,24.60
2023-02-14T12:53:15.895Z,25.83
2023-02-14T12:56:08.584Z,24.33
2023-02-14T12:58:53.687Z,24.50
2023-02-14T13:02:03.727Z,25.83
2023-02-14T13:04:48.271Z,24.00
2023-02-14T13:07:38.204Z,23.67
2023-02-14T13:10:34.420Z,25.23
2023-02-14T13:13:51.302Z,22.77
2023-02-14T13:16:26.256Z,24.10
2023-02-14T13:18:59.744Z,22.27
2023-02-14T13:21:31.671Z,24.50
2023-02-14T13:24:25.638Z,22.63
2023-02-14T13:26:56.872Z,26.53
2023-02-14T13:29:27.398Z,22.80
2023-02-14T13:31:58.750Z,21.07
2023-02-14T13:34:33.777Z,21.77
2023-02-14T13:37:03.071Z,19.33
2023-02-14T13:40:05.136Z,22.03
2023-02-14T13:42:56.061Z,22.20
2023-02-14T13:45:40.756Z,21.53
2023-02-14T13:48:13.937Z,20.87
2023-02-14T13:51:01.274Z,20.13
2023-02-14T13:53:47.011Z,23.77
2023-02-14T13:56:15.367Z,29.33
2023-02-14T13:58:49.551Z,21.03
2023-02-14T14:01:47.922Z,22.90
2023-02-14T14:04:30.227Z,20.77
2023-02-14T14:07:02.839Z,21.83
2023-02-14T14:09:45.409Z,21.67
2023-02-14T14:12:27.317Z,22.03
2023-02-14T14:15:06.105Z,20.30
2023-02-14T14:17:44.489Z,23.83
2023-02-14T14:20:18.766Z,23.73
2023-02-14T14:22:54.890Z,20.77
2023-02-14T14:25:31.973Z,21.00
2023-02-14T14:28:00.310Z,19.77
2023-02-14T14:30:32.080Z,19.33
2023-02-14T14:33:27.780Z,20.43
2023-02-14T14:36:08.376Z,19.50
2023-02-14T14:38:47.048Z,19.07
2023-02-14T14:41:17.678Z,19.00
2023-02-14T14:43:44.619Z,18.97
2023-02-14T14:46:14.349Z,19.70
2023-02-14T14:48:54.408Z,20.00
2023-02-14T14:51:32.327Z,20.50
2023-02-14T14:54:13.704Z,20.33
2023-02-14T14:56:50.818Z,19.87
2023-02-14T14:59:37.364Z,24.57
2023-02-14T15:02:20.461Z,24.47
2023-02-14T15:04:47.249Z,21.53
2023-02-14T15:07:18.451Z,20.27
2023-02-14T15:09:45.980Z,20.17
2023-02-14T15:12:35.567Z,19.83
2023-02-14T15:15:02.460Z,20.73
2023-02-14T15:17:32.343Z,21.17
2023-02-14T15:20:05.596Z,21.60
2023-02-14T15:22:45.606Z,24.60
2023-02-14T15:25:21.611Z,31.60
2023-02-14T15:27:49.225Z,27.13
2023-02-14T15:30:25.254Z,21.60
2023-02-14T15:32:52.901Z,22.23
2023-02-14T15:35:25.462Z,27.73
2023-02-14T15:37:52.848Z,25.17
2023-02-14T15:40:28.170Z,22.93
2023-02-14T15:42:58.987Z,20.93
2023-02-14T15:45:26.202Z,22.20
2023-02-14T15:48:05.325Z,25.10
2023-02-14T15:50:33.630Z,20.53
2023-02-14T15:53:06.139Z,21.17
2023-02-14T15:55:34.288Z,21.63
2023-02-14T15:58:05.639Z,22.60
2023-02-14T16:00:33.736Z,22.70
2023-02-14T16:03:04.909Z,25.53
2023-02-14T16:05:31.878Z,24.70
2023-02-14T16:08:08.014Z,24.47
2023-02-14T16:10:37.612Z,29.37
2023-02-14T16:13:20.379Z,29.57
2023-02-14T16:16:03.692Z,26.17
2023-02-14T16:18:39.385Z,26.37
2023-02-14T16:21:27.921Z,25.50
2023-02-14T16:24:10.801Z,26.07
2023-02-14T16:26:45.256Z,27.07
2023-02-14T16:29:15.496Z,27.43
2023-02-14T16:32:06.245Z,26.23
2023-02-14T16:34:32.410Z,30.00
2023-02-14T16:37:07.381Z,28.13
2023-02-14T16:39:35.313Z,26.47
2023-02-14T16:42:03.866Z,24.43
2023-02-14T16:44:30.681Z,24.30
2023-02-14T16:46:57.380Z,24.87
2023-02-14T16:49:24.339Z,24.63
2023-02-14T16:51:53.340Z,23.33
2023-02-14T16:54:23.083Z,23.97
2023-02-14T16:56:54.265Z,24.27
2023-02-14T16:59:21.076Z,23.17
2023-02-14T17:01:48.813Z,22.57
2023-02-14T17:04:15.866Z,20.77
2023-02-14T17:06:48.932Z,22.93
2023-02-14T17:09:18.081Z,20.97
2023-02-14T17:11:48.695Z,21.00
2023-02-14T17:14:19.790Z,21.97
2023-02-14T17:16:46.653Z,20.93
2023-02-14T17:19:13.679Z,21.30
2023-02-14T17:21:41.006Z,21.93
2023-02-14T17:24:07.957Z,23.47
2023-02-14T17:26:35.125Z,21.90
2023-02-14T17:29:01.873Z,21.03
2023-02-14T17:31:28.812Z,21.33
2023-02-14T17:33:55.736Z,22.17
2023-02-14T17:36:24.124Z,21.60
2023-02-14T17:38:53.611Z,25.80
2023-02-14T17:41:23.162Z,24.63
2023-02-14T17:43:50.786Z,24.00
2023-02-14T17:46:20.905Z,25.10
2023-02-14T17:48:49.040Z,22.40
2023-02-14T17:51:17.995Z,24.33
2023-02-14T17:53:44.881Z,24.07
2023-02-14T17:56:20.402Z,23.60
2023-02-14T17:58:48.692Z,26.97
2023-02-14T18:01:17.946Z,24.87
2023-02-14T18:03:44.980Z,22.50
2023-02-14T18:06:13.925Z,21.07
2023-02-14T18:08:46.148Z,38.20
2023-02-14T18:11:14.003Z,24.70
2023-02-14T18:13:40.932Z,22.77
2023-02-14T18:16:10.333Z,21.27
2023-02-14T18:18:38.040Z,21.80
2023-02-14T18:21:07.673Z,21.37
2023-02-14T18:23:34.879Z,20.80
2023-02-14T18:26:04.969Z,20.90
2023-02-14T18:28:32.836Z,21.37
2023-02-14T18:31:05.218Z,20.47
2023-02-14T18:33:32.073Z,22.27
2023-02-14T18:36:02.293Z,21.57
2023-02-14T18:38:29.144Z,23.27
2023-02-14T18:40:55.906Z,22.47
2023-02-14T18:43:22.661Z,23.80
2023-02-14T18:45:49.451Z,22.97
2023-02-14T18:48:16.398Z,23.03
2023-02-14T18:50:43.074Z,22.70
2023-02-14T18:53:09.837Z,23.63
2023-02-14T18:55:38.085Z,26.57
2023-02-14T18:58:07.722Z,21.80
2023-02-14T19:00:35.017Z,22.83
2023-02-14T19:03:01.801Z,23.67
2023-02-14T19:05:28.631Z,26.07
2023-02-14T19:07:58.116Z,23.40
2023-02-14T19:10:25.016Z,24.30
2023-02-14T19:12:52.557Z,25.00
2023-02-14T19:15:19.340Z,24.13
2023-02-14T19:17:46.116Z,25.80
2023-02-14T19:20:13.393Z,25.33
2023-02-14T19:22:41.201Z,24.90
2023-02-14T19:25:08.919Z,24.80
2023-02-14T19:27:36.971Z,24.73
2023-02-14T19:30:03.980Z,25.30
2023-02-14T19:32:31.242Z,25.77
2023-02-14T19:34:57.994Z,25.97
2023-02-14T19:37:26.707Z,26.70
2023-02-14T19:39:53.652Z,28.13
2023-02-14T19:42:22.496Z,26.27
2023-02-14T19:44:49.791Z,27.30
2023-02-14T19:47:30.913Z,27.00
2023-02-14T19:50:03.988Z,25.70
2023-02-14T19:52:30.791Z,26.73
2023-02-14T19:54:57.680Z,30.97
2023-02-14T19:57:25.119Z,28.50
2023-02-14T19:59:51.849Z,30.50
2023-02-14T20:02:19.839Z,28.83
2023-02-14T20:04:47.014Z,27.70
2023-02-14T20:07:13.882Z,29.30
2023-02-14T20:09:40.595Z,28.53
2023-02-14T20:12:07.754Z,26.83
2023-02-14T20:14:49.852Z,28.33
2023-02-14T20:17:17.968Z,28.07
2023-02-14T20:19:45.139Z,29.37
2023-02-14T20:22:12.003Z,27.23
2023-02-14T20:24:38.765Z,29.10
2023-02-14T20:27:05.809Z,27.30
2023-02-14T20:29:33.193Z,28.77
2023-02-14T20:32:01.463Z,26.50
2023-02-14T20:34:29.490Z,29.27
2023-02-14T20:36:56.501Z,27.13
2023-02-14T20:39:28.686Z,27.57
2023-02-14T20:41:55.428Z,28.33
2023-02-14T20:44:22.309Z,28.40
2023-02-14T20:46:51.725Z,28.07
2023-02-14T20:49:20.090Z,27.57
2023-02-14T20:51:49.639Z,28.73
2023-02-14T20:54:18.832Z,27.67
2023-02-14T20:56:46.208Z,29.40
2023-02-14T20:59:13.477Z,29.03
2023-02-14T21:01:40.565Z,35.20
2023-02-14T21:04:07.614Z,32.37
2023-02-14T21:06:36.939Z,28.80
2023-02-14T21:09:04.728Z,28.27
2023-02-14T21:11:31.516Z,29.20
2023-02-14T21:14:00.047Z,29.80
2023-02-14T21:16:28.551Z,31.13
2023-02-14T21:18:59.137Z,28.57
2023-02-14T21:21:32.650Z,29.37
2023-02-14T21:24:05.460Z,30.53
2023-02-14T21:26:32.311Z,27.37
2023-02-14T21:28:59.161Z,26.07
2023-02-14T21:31:26.103Z,27.17
2023-02-14T21:33:57.938Z,27.50
2023-02-14T21:36:26.947Z,27.87
2023-02-14T21:38:56.020Z,26.60
2023-02-14T21:41:24.737Z,26.27
2023-02-14T21:43:53.050Z,26.90
2023-02-14T21:46:27.335Z,27.93
2023-02-14T21:49:14.129Z,26.10
2023-02-14T21:51:41.567Z,26.77
2023-02-14T21:54:09.098Z,29.13
2023-02-14T21:56:37.152Z,27.17
2023-02-14T21:59:04.516Z,27.60
2023-02-14T22:01:33.469Z,26.77
2023-02-14T22:04:01.137Z,26.93
2023-02-14T22:06:28.617Z,27.33
2023-02-14T22:08:56.914Z,26.80
2023-02-14T22:11:24.864Z,25.43
2023-02-14T22:13:51.788Z,28.13
2023-02-14T22:16:20.855Z,26.70
2023-02-14T22:18:48.135Z,27.47
2023-02-14T22:21:22.380Z,29.40
2023-02-14T22:23:49.700Z,26.50
2023-02-14T22:26:28.374Z,27.67
2023-02-14T22:28:59.159Z,27.70
2023-02-14T22:31:27.854Z,28.43
2023-02-14T22:33:54.967Z,27.43
2023-02-14T22:36:22.217Z,28.13
2023-02-14T22:38:49.248Z,27.03
2023-02-14T22:41:18.512Z,25.57
2023-02-14T22:43:45.926Z,26.47
2023-02-14T22:46:18.153Z,25.87
2023-02-14T22:48:45.217Z,25.00
2023-02-14T22:51:17.647Z,26.40
2023-02-14T22:53:44.371Z,25.37
2023-02-14T22:56:14.146Z,24.13
2023-02-14T22:58:41.458Z,24.47
2023-02-14T23:01:17.320Z,24.90
2023-02-14T23:03:45.149Z,27.17
2023-02-14T23:06:12.764Z,23.77
2023-02-14T23:08:44.097Z,24.47
2023-02-14T23:11:14.374Z,22.33
2023-02-14T23:13:59.930Z,23.83
2023-02-14T23:16:45.451Z,21.67
2023-02-14T23:19:42.768Z,20.60
2023-02-14T23:22:12.992Z,18.97
2023-02-14T23:24:39.955Z,18.40
2023-02-14T23:27:07.959Z,19.73
2023-02-14T23:29:35.455Z,20.83
2023-02-14T23:32:02.805Z,20.37
2023-02-14T23:34:32.565Z,21.67
2023-02-14T23:36:59.719Z,20.20
2023-02-14T23:39:26.521Z,22.70
2023-02-14T23:41:53.494Z,22.43
2023-02-14T23:44:24.531Z,21.50
2023-02-14T23:46:56.601Z,22.53
2023-02-14T23:49:24.909Z,19.57
2023-02-14T23:51:53.474Z,21.13
2023-02-14T23:54:21.411Z,21.87
2023-02-14T23:56:48.355Z,21.57
2023-02-14T23:59:16.284Z,22.40
